sensor_id;sensor_type;location;lat;lon;timestamp;P1;durP1;ratioP1;P2;durP2;ratioP2
40503;SDS011;42292;49.048;8.374;2022-11-15T00:00:56;12.77;;;10.82;;
40503;SDS011;42292;49.048;8.374;2022-11-15T00:03:23;13.15;;;11.60;;
40503;SDS011;42292;49.048;8.374;2022-11-15T00:05:52;12.97;;;11.00;;
40503;SDS011;42292;49.048;8.374;2022-11-15T00:08:20;13.93;;;12.32;;
40503;SDS011;42292;49.048;8.374;2022-11-15T00:10:55;14.82;;;12.73;;
40503;SDS011;42292;49.048;8.374;2022-11-15T00:13:21;14.70;;;11.10;;
40503;SDS011;42292;49.048;8.374;2022-11-15T00:15:47;13.68;;;11.45;;
40503;SDS011;42292;49.048;8.374;2022-11-15T00:18:13;17.45;;;12.18;;
40503;SDS011;42292;49.048;8.374;2022-11-15T00:20:42;15.40;;;12.80;;
40503;SDS011;42292;49.048;8.374;2022-11-15T00:23:07;13.93;;;12.43;;
40503;SDS011;42292;49.048;8.374;2022-11-15T00:25:33;14.83;;;11.77;;
40503;SDS011;42292;49.048;8.374;2022-11-15T00:27:59;16.45;;;13.00;;
40503;SDS011;42292;49.048;8.374;2022-11-15T00:30:25;13.75;;;11.88;;
40503;SDS011;42292;49.048;8.374;2022-11-15T00:32:52;14.20;;;11.90;;
40503;SDS011;42292;49.048;8.374;2022-11-15T00:35:20;13.60;;;12.02;;
40503;SDS011;42292;49.048;8.374;2022-11-15T00:37:51;13.43;;;11.60;;
40503;SDS011;42292;49.048;8.374;2022-11-15T00:40:17;14.47;;;11.13;;
40503;SDS011;42292;49.048;8.374;2022-11-15T00:42:45;14.32;;;11.10;;
40503;SDS011;42292;49.048;8.374;2022-11-15T00:45:11;17.20;;;13.40;;
40503;SDS011;42292;49.048;8.374;2022-11-15T00:47:39;12.63;;;11.18;;
40503;SDS011;42292;49.048;8.374;2022-11-15T00:50:04;16.33;;;12.00;;
40503;SDS011;42292;49.048;8.374;2022-11-15T00:52:30;14.53;;;11.37;;
40503;SDS011;42292;49.048;8.374;2022-11-15T00:54:58;12.60;;;11.02;;
40503;SDS011;42292;49.048;8.374;2022-11-15T00:57:28;14.00;;;11.32;;
40503;SDS011;42292;49.048;8.374;2022-11-15T00:59:54;16.97;;;11.33;;
40503;SDS011;42292;49.048;8.374;2022-11-15T01:02:19;14.70;;;11.43;;
40503;SDS011;42292;49.048;8.374;2022-11-15T01:04:47;12.05;;;10.23;;
40503;SDS011;42292;49.048;8.374;2022-11-15T01:07:13;13.80;;;11.18;;
40503;SDS011;42292;49.048;8.374;2022-11-15T01:09:38;11.37;;;9.90;;
40503;SDS011;42292;49.048;8.374;2022-11-15T01:12:06;11.43;;;10.05;;
40503;SDS011;42292;49.048;8.374;2022-11-15T01:14:34;11.23;;;10.02;;
40503;SDS011;42292;49.048;8.374;2022-11-15T01:17:02;13.45;;;10.38;;
40503;SDS011;42292;49.048;8.374;2022-11-15T01:19:27;12.20;;;10.30;;
40503;SDS011;42292;49.048;8.374;2022-11-15T01:21:57;14.63;;;10.80;;
40503;SDS011;42292;49.048;8.374;2022-11-15T01:24:25;13.55;;;11.20;;
40503;SDS011;42292;49.048;8.374;2022-11-15T01:26:51;10.30;;;9.13;;
40503;SDS011;42292;49.048;8.374;2022-11-15T01:29:19;11.10;;;9.68;;
40503;SDS011;42292;49.048;8.374;2022-11-15T01:31:44;11.37;;;9.70;;
40503;SDS011;42292;49.048;8.374;2022-11-15T01:34:12;11.80;;;9.70;;
40503;SDS011;42292;49.048;8.374;2022-11-15T01:36:37;13.43;;;9.93;;
40503;SDS011;42292;49.048;8.374;2022-11-15T01:39:03;11.23;;;9.38;;
40503;SDS011;42292;49.048;8.374;2022-11-15T01:41:32;12.57;;;10.70;;
40503;SDS011;42292;49.048;8.374;2022-11-15T01:47:15;10.48;;;9.10;;
40503;SDS011;42292;49.048;8.374;2022-11-15T01:50:09;11.03;;;9.20;;
40503;SDS011;42292;49.048;8.374;2022-11-15T01:52:38;11.10;;;8.63;;
40503;SDS011;42292;49.048;8.374;2022-11-15T01:55:11;11.63;;;9.52;;
40503;SDS011;42292;49.048;8.374;2022-11-15T01:57:38;11.35;;;9.00;;
40503;SDS011;42292;49.048;8.374;2022-11-15T02:00:06;11.25;;;9.27;;
40503;SDS011;42292;49.048;8.374;2022-11-15T02:02:32;11.03;;;9.17;;
40503;SDS011;42292;49.048;8.374;2022-11-15T02:04:59;10.67;;;9.00;;
40503;SDS011;42292;49.048;8.374;2022-11-15T02:07:26;11.55;;;8.93;;
40503;SDS011;42292;49.048;8.374;2022-11-15T02:09:54;12.10;;;9.02;;
40503;SDS011;42292;49.048;8.374;2022-11-15T02:12:21;11.40;;;9.93;;
40503;SDS011;42292;49.048;8.374;2022-11-15T02:14:51;10.40;;;9.25;;
40503;SDS011;42292;49.048;8.374;2022-11-15T02:20:21;9.90;;;8.70;;
40503;SDS011;42292;49.048;8.374;2022-11-15T02:31:45;10.48;;;9.02;;
40503;SDS011;42292;49.048;8.374;2022-11-15T02:34:35;10.32;;;9.02;;
40503;SDS011;42292;49.048;8.374;2022-11-15T02:37:16;9.75;;;8.40;;
40503;SDS011;42292;49.048;8.374;2022-11-15T02:40:10;9.68;;;8.60;;
40503;SDS011;42292;49.048;8.374;2022-11-15T02:42:41;10.98;;;8.85;;
40503;SDS011;42292;49.048;8.374;2022-11-15T02:45:35;10.88;;;9.30;;
40503;SDS011;42292;49.048;8.374;2022-11-15T02:48:04;10.60;;;9.48;;
40503;SDS011;42292;49.048;8.374;2022-11-15T02:50:32;10.57;;;9.00;;
40503;SDS011;42292;49.048;8.374;2022-11-15T02:52:58;10.88;;;8.85;;
40503;SDS011;42292;49.048;8.374;2022-11-15T02:55:28;12.32;;;9.40;;
40503;SDS011;42292;49.048;8.374;2022-11-15T03:00:58;12.35;;;9.63;;
40503;SDS011;42292;49.048;8.374;2022-11-15T03:03:32;11.23;;;9.05;;
40503;SDS011;42292;49.048;8.374;2022-11-15T03:08:57;10.75;;;8.57;;
40503;SDS011;42292;49.048;8.374;2022-11-15T03:11:32;10.13;;;8.60;;
40503;SDS011;42292;49.048;8.374;2022-11-15T03:14:02;10.77;;;8.18;;
40503;SDS011;42292;49.048;8.374;2022-11-15T03:16:37;11.00;;;8.55;;
40503;SDS011;42292;49.048;8.374;2022-11-15T03:19:35;10.25;;;8.25;;
40503;SDS011;42292;49.048;8.374;2022-11-15T03:22:12;9.63;;;8.50;;
40503;SDS011;42292;49.048;8.374;2022-11-15T03:24:44;10.02;;;7.72;;
40503;SDS011;42292;49.048;8.374;2022-11-15T03:27:15;9.93;;;8.23;;
40503;SDS011;42292;49.048;8.374;2022-11-15T03:29:46;9.82;;;8.40;;
40503;SDS011;42292;49.048;8.374;2022-11-15T03:32:21;11.43;;;8.60;;
40503;SDS011;42292;49.048;8.374;2022-11-15T03:40:27;9.88;;;7.68;;
40503;SDS011;42292;49.048;8.374;2022-11-15T03:45:41;19.83;;;8.00;;
40503;SDS011;42292;49.048;8.374;2022-11-15T03:48:13;10.10;;;7.93;;
40503;SDS011;42292;49.048;8.374;2022-11-15T03:50:45;9.80;;;7.75;;
40503;SDS011;42292;49.048;8.374;2022-11-15T03:53:12;10.10;;;8.13;;
40503;SDS011;42292;49.048;8.374;2022-11-15T03:55:38;9.18;;;7.80;;
40503;SDS011;42292;49.048;8.374;2022-11-15T03:58:06;8.40;;;7.50;;
40503;SDS011;42292;49.048;8.374;2022-11-15T04:00:34;8.80;;;7.65;;
40503;SDS011;42292;49.048;8.374;2022-11-15T04:03:02;10.50;;;7.88;;
40503;SDS011;42292;49.048;8.374;2022-11-15T04:05:28;10.27;;;8.07;;
40503;SDS011;42292;49.048;8.374;2022-11-15T04:07:53;9.90;;;7.93;;
40503;SDS011;42292;49.048;8.374;2022-11-15T04:10:19;8.80;;;7.82;;
40503;SDS011;42292;49.048;8.374;2022-11-15T04:12:45;9.50;;;7.97;;
40503;SDS011;42292;49.048;8.374;2022-11-15T04:15:13;9.60;;;8.25;;
40503;SDS011;42292;49.048;8.374;2022-11-15T04:17:48;9.07;;;7.50;;
40503;SDS011;42292;49.048;8.374;2022-11-15T04:20:22;9.73;;;8.13;;
40503;SDS011;42292;49.048;8.374;2022-11-15T04:23:27;10.15;;;8.05;;
40503;SDS011;42292;49.048;8.374;2022-11-15T04:26:20;9.77;;;7.77;;
40503;SDS011;42292;49.048;8.374;2022-11-15T04:28:49;9.07;;;7.63;;
40503;SDS011;42292;49.048;8.374;2022-11-15T04:31:33;9.38;;;7.93;;
40503;SDS011;42292;49.048;8.374;2022-11-15T04:34:01;12.87;;;8.33;;
40503;SDS011;42292;49.048;8.374;2022-11-15T04:36:27;10.35;;;8.10;;
40503;SDS011;42292;49.048;8.374;2022-11-15T04:39:11;9.55;;;7.72;;
40503;SDS011;42292;49.048;8.374;2022-11-15T04:41:38;15.15;;;11.45;;
40503;SDS011;42292;49.048;8.374;2022-11-15T04:44:06;23.02;;;15.68;;
40503;SDS011;42292;49.048;8.374;2022-11-15T04:46:32;32.07;;;20.37;;
40503;SDS011;42292;49.048;8.374;2022-11-15T04:48:57;30.08;;;19.75;;
40503;SDS011;42292;49.048;8.374;2022-11-15T04:51:25;18.45;;;12.40;;
40503;SDS011;42292;49.048;8.374;2022-11-15T04:53:53;11.68;;;9.20;;
40503;SDS011;42292;49.048;8.374;2022-11-15T04:56:18;14.30;;;10.80;;
40503;SDS011;42292;49.048;8.374;2022-11-15T04:58:52;10.75;;;9.23;;
40503;SDS011;42292;49.048;8.374;2022-11-15T05:01:20;9.02;;;7.80;;
40503;SDS011;42292;49.048;8.374;2022-11-15T05:03:45;8.70;;;7.03;;
40503;SDS011;42292;49.048;8.374;2022-11-15T05:06:30;9.85;;;7.63;;
40503;SDS011;42292;49.048;8.374;2022-11-15T05:08:56;7.50;;;6.70;;
40503;SDS011;42292;49.048;8.374;2022-11-15T05:11:25;9.52;;;7.30;;
40503;SDS011;42292;49.048;8.374;2022-11-15T05:13:52;8.35;;;7.07;;
40503;SDS011;42292;49.048;8.374;2022-11-15T05:16:21;8.25;;;6.65;;
40503;SDS011;42292;49.048;8.374;2022-11-15T05:18:48;8.18;;;6.70;;
40503;SDS011;42292;49.048;8.374;2022-11-15T05:21:16;9.13;;;6.95;;
40503;SDS011;42292;49.048;8.374;2022-11-15T05:23:41;7.78;;;6.15;;
40503;SDS011;42292;49.048;8.374;2022-11-15T05:26:09;8.13;;;6.25;;
40503;SDS011;42292;49.048;8.374;2022-11-15T05:28:36;11.23;;;6.38;;
40503;SDS011;42292;49.048;8.374;2022-11-15T05:31:05;8.55;;;7.10;;
40503;SDS011;42292;49.048;8.374;2022-11-15T05:33:35;8.85;;;6.93;;
40503;SDS011;42292;49.048;8.374;2022-11-15T05:36:04;9.57;;;6.50;;
40503;SDS011;42292;49.048;8.374;2022-11-15T05:38:59;8.77;;;6.22;;
40503;SDS011;42292;49.048;8.374;2022-11-15T05:41:27;8.50;;;6.15;;
40503;SDS011;42292;49.048;8.374;2022-11-15T05:44:04;8.73;;;6.22;;
40503;SDS011;42292;49.048;8.374;2022-11-15T05:46:33;6.60;;;5.85;;
40503;SDS011;42292;49.048;8.374;2022-11-15T05:49:01;6.97;;;6.07;;
40503;SDS011;42292;49.048;8.374;2022-11-15T05:51:29;8.18;;;6.43;;
40503;SDS011;42292;49.048;8.374;2022-11-15T05:53:55;8.13;;;5.80;;
40503;SDS011;42292;49.048;8.374;2022-11-15T05:56:23;8.27;;;6.35;;
40503;SDS011;42292;49.048;8.374;2022-11-15T05:58:49;7.75;;;6.50;;
40503;SDS011;42292;49.048;8.374;2022-11-15T06:01:16;8.93;;;7.40;;
40503;SDS011;42292;49.048;8.374;2022-11-15T06:03:46;45.70;;;36.00;;
40503;SDS011;42292;49.048;8.374;2022-11-15T06:06:12;8.63;;;6.60;;
40503;SDS011;42292;49.048;8.374;2022-11-15T06:08:39;8.35;;;6.72;;
40503;SDS011;42292;49.048;8.374;2022-11-15T06:11:10;7.95;;;6.03;;
40503;SDS011;42292;49.048;8.374;2022-11-15T06:13:35;8.15;;;6.35;;
40503;SDS011;42292;49.048;8.374;2022-11-15T06:16:03;7.38;;;5.97;;
40503;SDS011;42292;49.048;8.374;2022-11-15T06:18:32;6.70;;;5.97;;
40503;SDS011;42292;49.048;8.374;2022-11-15T06:20:58;7.85;;;5.70;;
40503;SDS011;42292;49.048;8.374;2022-11-15T06:23:27;8.13;;;6.53;;
40503;SDS011;42292;49.048;8.374;2022-11-15T06:25:57;8.48;;;6.13;;
40503;SDS011;42292;49.048;8.374;2022-11-15T06:28:25;7.35;;;6.00;;
40503;SDS011;42292;49.048;8.374;2022-11-15T06:30:53;6.03;;;5.38;;
40503;SDS011;42292;49.048;8.374;2022-11-15T06:33:21;8.53;;;6.43;;
40503;SDS011;42292;49.048;8.374;2022-11-15T06:35:46;9.20;;;6.60;;
40503;SDS011;42292;49.048;8.374;2022-11-15T06:38:12;7.35;;;6.25;;
40503;SDS011;42292;49.048;8.374;2022-11-15T06:40:38;7.37;;;6.23;;
40503;SDS011;42292;49.048;8.374;2022-11-15T06:43:04;7.88;;;6.22;;
40503;SDS011;42292;49.048;8.374;2022-11-15T06:45:33;7.53;;;5.90;;
40503;SDS011;42292;49.048;8.374;2022-11-15T06:47:58;24.55;;;18.08;;
40503;SDS011;42292;49.048;8.374;2022-11-15T06:50:26;56.58;;;42.55;;
40503;SDS011;42292;49.048;8.374;2022-11-15T06:52:58;85.15;;;58.95;;
40503;SDS011;42292;49.048;8.374;2022-11-15T06:55:26;31.17;;;24.88;;
40503;SDS011;42292;49.048;8.374;2022-11-15T06:57:52;20.80;;;18.20;;
40503;SDS011;42292;49.048;8.374;2022-11-15T07:00:22;22.33;;;19.52;;
40503;SDS011;42292;49.048;8.374;2022-11-15T07:02:48;24.77;;;19.95;;
40503;SDS011;42292;49.048;8.374;2022-11-15T07:05:14;21.10;;;17.97;;
40503;SDS011;42292;49.048;8.374;2022-11-15T07:07:42;24.42;;;19.70;;
40503;SDS011;42292;49.048;8.374;2022-11-15T07:10:17;12.23;;;9.25;;
40503;SDS011;42292;49.048;8.374;2022-11-15T07:12:47;9.63;;;7.38;;
40503;SDS011;42292;49.048;8.374;2022-11-15T07:15:13;9.60;;;6.80;;
40503;SDS011;42292;49.048;8.374;2022-11-15T07:17:44;8.43;;;6.20;;
40503;SDS011;42292;49.048;8.374;2022-11-15T07:20:10;8.97;;;6.13;;
40503;SDS011;42292;49.048;8.374;2022-11-15T07:22:39;7.60;;;6.10;;
40503;SDS011;42292;49.048;8.374;2022-11-15T07:25:05;8.27;;;5.68;;
40503;SDS011;42292;49.048;8.374;2022-11-15T07:27:33;7.45;;;5.80;;
40503;SDS011;42292;49.048;8.374;2022-11-15T07:30:01;7.63;;;5.70;;
40503;SDS011;42292;49.048;8.374;2022-11-15T07:32:29;8.30;;;6.05;;
40503;SDS011;42292;49.048;8.374;2022-11-15T07:34:55;10.73;;;5.73;;
40503;SDS011;42292;49.048;8.374;2022-11-15T07:37:21;8.75;;;5.20;;
40503;SDS011;42292;49.048;8.374;2022-11-15T07:39:47;8.13;;;5.07;;
40503;SDS011;42292;49.048;8.374;2022-11-15T07:42:12;6.90;;;5.50;;
40503;SDS011;42292;49.048;8.374;2022-11-15T07:44:56;6.45;;;5.38;;
40503;SDS011;42292;49.048;8.374;2022-11-15T07:47:24;6.90;;;5.53;;
40503;SDS011;42292;49.048;8.374;2022-11-15T07:49:50;8.57;;;6.22;;
40503;SDS011;42292;49.048;8.374;2022-11-15T07:52:16;8.90;;;5.67;;
40503;SDS011;42292;49.048;8.374;2022-11-15T07:54:46;6.68;;;5.32;;
40503;SDS011;42292;49.048;8.374;2022-11-15T07:57:14;6.97;;;5.47;;
40503;SDS011;42292;49.048;8.374;2022-11-15T07:59:39;8.38;;;5.70;;
40503;SDS011;42292;49.048;8.374;2022-11-15T08:02:05;8.00;;;5.53;;
40503;SDS011;42292;49.048;8.374;2022-11-15T08:04:30;7.00;;;5.67;;
40503;SDS011;42292;49.048;8.374;2022-11-15T08:06:59;9.43;;;5.50;;
40503;SDS011;42292;49.048;8.374;2022-11-15T08:09:24;6.93;;;5.63;;
40503;SDS011;42292;49.048;8.374;2022-11-15T08:11:50;6.43;;;4.97;;
40503;SDS011;42292;49.048;8.374;2022-11-15T08:14:15;6.60;;;4.90;;
40503;SDS011;42292;49.048;8.374;2022-11-15T08:16:43;6.37;;;5.30;;
40503;SDS011;42292;49.048;8.374;2022-11-15T08:19:09;10.07;;;5.25;;
40503;SDS011;42292;49.048;8.374;2022-11-15T08:21:34;6.50;;;5.17;;
40503;SDS011;42292;49.048;8.374;2022-11-15T08:24:00;7.07;;;4.77;;
40503;SDS011;42292;49.048;8.374;2022-11-15T08:26:30;9.02;;;4.95;;
40503;SDS011;42292;49.048;8.374;2022-11-15T08:28:58;6.20;;;4.60;;
40503;SDS011;42292;49.048;8.374;2022-11-15T08:31:24;7.68;;;4.53;;
40503;SDS011;42292;49.048;8.374;2022-11-15T08:33:49;8.50;;;4.73;;
40503;SDS011;42292;49.048;8.374;2022-11-15T08:36:16;10.07;;;5.30;;
40503;SDS011;42292;49.048;8.374;2022-11-15T08:38:41;6.07;;;4.80;;
40503;SDS011;42292;49.048;8.374;2022-11-15T08:41:10;6.47;;;4.75;;
40503;SDS011;42292;49.048;8.374;2022-11-15T08:43:44;5.72;;;4.50;;
40503;SDS011;42292;49.048;8.374;2022-11-15T08:46:11;6.77;;;4.60;;
40503;SDS011;42292;49.048;8.374;2022-11-15T08:48:43;6.07;;;4.50;;
40503;SDS011;42292;49.048;8.374;2022-11-15T08:51:11;6.57;;;4.60;;
40503;SDS011;42292;49.048;8.374;2022-11-15T08:53:36;7.07;;;4.70;;
40503;SDS011;42292;49.048;8.374;2022-11-15T08:56:02;6.77;;;5.40;;
40503;SDS011;42292;49.048;8.374;2022-11-15T08:58:31;7.18;;;4.85;;
40503;SDS011;42292;49.048;8.374;2022-11-15T09:01:01;8.20;;;4.78;;
40503;SDS011;42292;49.048;8.374;2022-11-15T09:03:27;6.20;;;4.50;;
40503;SDS011;42292;49.048;8.374;2022-11-15T09:06:00;6.90;;;4.38;;
40503;SDS011;42292;49.048;8.374;2022-11-15T09:08:31;6.00;;;4.63;;
40503;SDS011;42292;49.048;8.374;2022-11-15T09:10:57;6.70;;;4.85;;
40503;SDS011;42292;49.048;8.374;2022-11-15T09:13:27;5.63;;;3.70;;
40503;SDS011;42292;49.048;8.374;2022-11-15T09:15:56;4.75;;;3.95;;
40503;SDS011;42292;49.048;8.374;2022-11-15T09:18:23;4.57;;;3.77;;
40503;SDS011;42292;49.048;8.374;2022-11-15T09:20:48;4.57;;;3.72;;
40503;SDS011;42292;49.048;8.374;2022-11-15T09:23:16;4.57;;;3.60;;
40503;SDS011;42292;49.048;8.374;2022-11-15T09:25:44;6.17;;;4.07;;
40503;SDS011;42292;49.048;8.374;2022-11-15T09:28:12;7.70;;;4.03;;
40503;SDS011;42292;49.048;8.374;2022-11-15T09:30:38;6.43;;;4.07;;
40503;SDS011;42292;49.048;8.374;2022-11-15T09:33:07;5.00;;;3.83;;
40503;SDS011;42292;49.048;8.374;2022-11-15T09:35:36;5.32;;;3.88;;
40503;SDS011;42292;49.048;8.374;2022-11-15T09:38:08;6.20;;;3.80;;
40503;SDS011;42292;49.048;8.374;2022-11-15T09:40:35;8.25;;;4.78;;
40503;SDS011;42292;49.048;8.374;2022-11-15T09:46:15;9.65;;;6.88;;
40503;SDS011;42292;49.048;8.374;2022-11-15T09:48:57;13.50;;;8.00;;
40503;SDS011;42292;49.048;8.374;2022-11-15T09:51:27;13.02;;;9.32;;
40503;SDS011;42292;49.048;8.374;2022-11-15T09:56:32;14.75;;;10.82;;
40503;SDS011;42292;49.048;8.374;2022-11-15T09:59:05;10.20;;;6.70;;
40503;SDS011;42292;49.048;8.374;2022-11-15T10:01:39;9.52;;;6.18;;
40503;SDS011;42292;49.048;8.374;2022-11-15T10:04:06;7.80;;;5.63;;
40503;SDS011;42292;49.048;8.374;2022-11-15T10:06:36;8.10;;;5.72;;
40503;SDS011;42292;49.048;8.374;2022-11-15T10:09:11;6.38;;;5.15;;
40503;SDS011;42292;49.048;8.374;2022-11-15T10:11:38;5.82;;;4.60;;
40503;SDS011;42292;49.048;8.374;2022-11-15T10:14:09;8.05;;;4.95;;
40503;SDS011;42292;49.048;8.374;2022-11-15T10:19:54;5.93;;;4.65;;
40503;SDS011;42292;49.048;8.374;2022-11-15T10:22:26;5.72;;;4.20;;
40503;SDS011;42292;49.048;8.374;2022-11-15T10:27:59;6.77;;;5.67;;
40503;SDS011;42292;49.048;8.374;2022-11-15T10:30:40;7.97;;;5.40;;
40503;SDS011;42292;49.048;8.374;2022-11-15T10:41:16;5.75;;;4.82;;
40503;SDS011;42292;49.048;8.374;2022-11-15T10:47:03;6.38;;;4.32;;
40503;SDS011;42292;49.048;8.374;2022-11-15T10:49:31;4.82;;;4.15;;
40503;SDS011;42292;49.048;8.374;2022-11-15T10:52:15;8.18;;;4.65;;
40503;SDS011;42292;49.048;8.374;2022-11-15T10:54:48;6.57;;;4.60;;
40503;SDS011;42292;49.048;8.374;2022-11-15T10:57:28;6.05;;;4.53;;
40503;SDS011;42292;49.048;8.374;2022-11-15T11:10:30;4.88;;;3.35;;
40503;SDS011;42292;49.048;8.374;2022-11-15T11:13:15;4.93;;;3.70;;
40503;SDS011;42292;49.048;8.374;2022-11-15T11:15:48;4.57;;;3.60;;
40503;SDS011;42292;49.048;8.374;2022-11-15T11:18:26;5.88;;;3.55;;
40503;SDS011;42292;49.048;8.374;2022-11-15T11:21:03;5.68;;;3.22;;
40503;SDS011;42292;49.048;8.374;2022-11-15T11:23:37;4.07;;;3.03;;
40503;SDS011;42292;49.048;8.374;2022-11-15T11:35:20;10.65;;;4.28;;
40503;SDS011;42292;49.048;8.374;2022-11-15T11:41:03;5.90;;;3.75;;
40503;SDS011;42292;49.048;8.374;2022-11-15T11:54:56;6.03;;;3.60;;
40503;SDS011;42292;49.048;8.374;2022-11-15T11:57:46;4.47;;;3.20;;
40503;SDS011;42292;49.048;8.374;2022-11-15T12:00:26;8.32;;;4.78;;
40503;SDS011;42292;49.048;8.374;2022-11-15T12:08:38;4.32;;;3.60;;
40503;SDS011;42292;49.048;8.374;2022-11-15T12:13:45;6.20;;;3.40;;
40503;SDS011;42292;49.048;8.374;2022-11-15T12:16:21;6.53;;;3.67;;
40503;SDS011;42292;49.048;8.374;2022-11-15T12:18:53;4.45;;;3.33;;
40503;SDS011;42292;49.048;8.374;2022-11-15T12:23:57;5.50;;;3.72;;
40503;SDS011;42292;49.048;8.374;2022-11-15T12:26:41;5.68;;;3.85;;
40503;SDS011;42292;49.048;8.374;2022-11-15T12:29:16;5.33;;;3.70;;
40503;SDS011;42292;49.048;8.374;2022-11-15T12:32:04;6.70;;;3.90;;
40503;SDS011;42292;49.048;8.374;2022-11-15T12:34:42;5.10;;;3.80;;
40503;SDS011;42292;49.048;8.374;2022-11-15T12:40:04;6.20;;;3.60;;
40503;SDS011;42292;49.048;8.374;2022-11-15T12:44:58;6.20;;;3.17;;
40503;SDS011;42292;49.048;8.374;2022-11-15T12:47:26;4.30;;;3.22;;
40503;SDS011;42292;49.048;8.374;2022-11-15T12:49:55;5.25;;;3.40;;
40503;SDS011;42292;49.048;8.374;2022-11-15T12:52:25;5.28;;;3.50;;
40503;SDS011;42292;49.048;8.374;2022-11-15T12:54:55;6.87;;;3.43;;
40503;SDS011;42292;49.048;8.374;2022-11-15T12:57:26;5.32;;;3.30;;
40503;SDS011;42292;49.048;8.374;2022-11-15T13:02:41;6.18;;;3.50;;
40503;SDS011;42292;49.048;8.374;2022-11-15T13:05:56;6.53;;;3.63;;
40503;SDS011;42292;49.048;8.374;2022-11-15T13:07:58;4.57;;;3.17;;
40503;SDS011;42292;49.048;8.374;2022-11-15T13:10:29;5.15;;;3.92;;
40503;SDS011;42292;49.048;8.374;2022-11-15T13:16:10;4.85;;;3.42;;
40503;SDS011;42292;49.048;8.374;2022-11-15T13:18:52;4.57;;;3.00;;
40503;SDS011;42292;49.048;8.374;2022-11-15T13:21:23;4.05;;;2.72;;
40503;SDS011;42292;49.048;8.374;2022-11-15T13:24:15;4.57;;;3.08;;
40503;SDS011;42292;49.048;8.374;2022-11-15T13:26:42;4.43;;;3.00;;
40503;SDS011;42292;49.048;8.374;2022-11-15T13:29:17;5.77;;;3.17;;
40503;SDS011;42292;49.048;8.374;2022-11-15T13:31:46;5.93;;;3.03;;
40503;SDS011;42292;49.048;8.374;2022-11-15T13:34:16;4.00;;;2.63;;
40503;SDS011;42292;49.048;8.374;2022-11-15T13:36:54;6.30;;;2.90;;
40503;SDS011;42292;49.048;8.374;2022-11-15T13:39:25;4.90;;;3.00;;
40503;SDS011;42292;49.048;8.374;2022-11-15T13:41:53;3.97;;;2.55;;
40503;SDS011;42292;49.048;8.374;2022-11-15T13:44:22;3.47;;;2.50;;
40503;SDS011;42292;49.048;8.374;2022-11-15T13:47:01;4.15;;;2.72;;
40503;SDS011;42292;49.048;8.374;2022-11-15T13:49:32;4.85;;;3.33;;
40503;SDS011;42292;49.048;8.374;2022-11-15T13:52:04;6.05;;;3.25;;
40503;SDS011;42292;49.048;8.374;2022-11-15T14:00:26;3.80;;;2.97;;
40503;SDS011;42292;49.048;8.374;2022-11-15T14:02:55;6.15;;;3.22;;
40503;SDS011;42292;49.048;8.374;2022-11-15T14:05:32;6.18;;;3.45;;
40503;SDS011;42292;49.048;8.374;2022-11-15T14:08:13;8.15;;;3.50;;
40503;SDS011;42292;49.048;8.374;2022-11-15T14:10:46;6.40;;;3.70;;
40503;SDS011;42292;49.048;8.374;2022-11-15T14:13:28;6.53;;;4.20;;
40503;SDS011;42292;49.048;8.374;2022-11-15T14:16:18;7.15;;;4.40;;
40503;SDS011;42292;49.048;8.374;2022-11-15T14:18:57;7.68;;;4.25;;
40503;SDS011;42292;49.048;8.374;2022-11-15T14:21:22;6.20;;;4.40;;
40503;SDS011;42292;49.048;8.374;2022-11-15T14:23:48;6.70;;;4.17;;
40503;SDS011;42292;49.048;8.374;2022-11-15T14:26:32;6.60;;;4.22;;
40503;SDS011;42292;49.048;8.374;2022-11-15T14:31:52;6.40;;;3.90;;
40503;SDS011;42292;49.048;8.374;2022-11-15T14:34:19;5.22;;;4.05;;
40503;SDS011;42292;49.048;8.374;2022-11-15T14:36:47;8.27;;;4.55;;
40503;SDS011;42292;49.048;8.374;2022-11-15T14:39:13;6.57;;;4.30;;
40503;SDS011;42292;49.048;8.374;2022-11-15T14:41:38;5.13;;;4.10;;
40503;SDS011;42292;49.048;8.374;2022-11-15T14:44:04;7.50;;;4.83;;
40503;SDS011;42292;49.048;8.374;2022-11-15T14:46:30;7.38;;;4.90;;
40503;SDS011;42292;49.048;8.374;2022-11-15T14:48:56;7.17;;;5.10;;
40503;SDS011;42292;49.048;8.374;2022-11-15T14:51:24;6.22;;;4.60;;
40503;SDS011;42292;49.048;8.374;2022-11-15T14:53:51;7.18;;;4.60;;
40503;SDS011;42292;49.048;8.374;2022-11-15T14:56:20;7.35;;;5.32;;
40503;SDS011;42292;49.048;8.374;2022-11-15T14:58:48;6.07;;;4.82;;
40503;SDS011;42292;49.048;8.374;2022-11-15T15:03:48;6.28;;;4.82;;
40503;SDS011;42292;49.048;8.374;2022-11-15T15:06:13;5.87;;;4.37;;
40503;SDS011;42292;49.048;8.374;2022-11-15T15:08:41;8.15;;;4.10;;
40503;SDS011;42292;49.048;8.374;2022-11-15T15:11:10;6.20;;;4.10;;
40503;SDS011;42292;49.048;8.374;2022-11-15T15:13:41;6.68;;;4.28;;
40503;SDS011;42292;49.048;8.374;2022-11-15T15:16:06;6.20;;;4.80;;
40503;SDS011;42292;49.048;8.374;2022-11-15T15:18:32;6.68;;;4.88;;
40503;SDS011;42292;49.048;8.374;2022-11-15T15:20:59;7.00;;;5.07;;
40503;SDS011;42292;49.048;8.374;2022-11-15T15:23:32;7.47;;;5.30;;
40503;SDS011;42292;49.048;8.374;2022-11-15T15:26:03;7.55;;;5.97;;
40503;SDS011;42292;49.048;8.374;2022-11-15T15:28:31;7.47;;;5.80;;
40503;SDS011;42292;49.048;8.374;2022-11-15T15:30:56;10.48;;;5.47;;
40503;SDS011;42292;49.048;8.374;2022-11-15T15:33:22;6.80;;;5.00;;
40503;SDS011;42292;49.048;8.374;2022-11-15T15:35:47;6.83;;;4.60;;
40503;SDS011;42292;49.048;8.374;2022-11-15T15:38:15;7.78;;;5.80;;
40503;SDS011;42292;49.048;8.374;2022-11-15T15:40:41;7.43;;;5.78;;
40503;SDS011;42292;49.048;8.374;2022-11-15T15:43:07;8.60;;;5.90;;
40503;SDS011;42292;49.048;8.374;2022-11-15T15:45:34;7.72;;;6.32;;
40503;SDS011;42292;49.048;8.374;2022-11-15T15:48:04;8.57;;;6.10;;
40503;SDS011;42292;49.048;8.374;2022-11-15T15:50:33;8.65;;;5.72;;
40503;SDS011;42292;49.048;8.374;2022-11-15T15:53:00;10.27;;;6.30;;
40503;SDS011;42292;49.048;8.374;2022-11-15T15:55:29;8.88;;;5.95;;
40503;SDS011;42292;49.048;8.374;2022-11-15T15:57:55;8.03;;;6.40;;
40503;SDS011;42292;49.048;8.374;2022-11-15T16:00:21;9.18;;;6.65;;
40503;SDS011;42292;49.048;8.374;2022-11-15T16:02:52;10.98;;;8.50;;
40503;SDS011;42292;49.048;8.374;2022-11-15T16:05:25;10.30;;;8.68;;
40503;SDS011;42292;49.048;8.374;2022-11-15T16:07:51;11.02;;;8.43;;
40503;SDS011;42292;49.048;8.374;2022-11-15T16:10:27;15.52;;;12.02;;
40503;SDS011;42292;49.048;8.374;2022-11-15T16:12:54;23.42;;;17.27;;
40503;SDS011;42292;49.048;8.374;2022-11-15T16:15:21;21.63;;;16.30;;
40503;SDS011;42292;49.048;8.374;2022-11-15T16:17:52;14.88;;;12.07;;
40503;SDS011;42292;49.048;8.374;2022-11-15T16:20:23;15.27;;;12.10;;
40503;SDS011;42292;49.048;8.374;2022-11-15T16:23:07;16.30;;;12.65;;
40503;SDS011;42292;49.048;8.374;2022-11-15T16:25:42;17.35;;;12.82;;
40503;SDS011;42292;49.048;8.374;2022-11-15T16:28:17;24.60;;;17.15;;
40503;SDS011;42292;49.048;8.374;2022-11-15T16:30:46;24.17;;;17.15;;
40503;SDS011;42292;49.048;8.374;2022-11-15T16:33:12;26.67;;;19.50;;
40503;SDS011;42292;49.048;8.374;2022-11-15T16:35:42;24.30;;;17.98;;
40503;SDS011;42292;49.048;8.374;2022-11-15T16:38:12;20.40;;;15.50;;
40503;SDS011;42292;49.048;8.374;2022-11-15T16:40:41;18.25;;;14.18;;
40503;SDS011;42292;49.048;8.374;2022-11-15T16:43:07;20.38;;;14.73;;
40503;SDS011;42292;49.048;8.374;2022-11-15T16:45:34;20.20;;;15.02;;
40503;SDS011;42292;49.048;8.374;2022-11-15T16:48:00;19.23;;;15.57;;
40503;SDS011;42292;49.048;8.374;2022-11-15T16:50:28;17.75;;;14.48;;
40503;SDS011;42292;49.048;8.374;2022-11-15T16:52:59;20.02;;;16.45;;
40503;SDS011;42292;49.048;8.374;2022-11-15T16:55:26;20.65;;;15.10;;
40503;SDS011;42292;49.048;8.374;2022-11-15T16:57:53;17.95;;;12.45;;